Home > Products > Valid Products > MTR

000
SAUS43 KDLH 281757
MTRGNA
METAR KGNA 281756Z AUTO 13006KT M01/M03 A2998 RMK AO1 SLP164
T10061033 10000 21006 58021





000
SAUS43 KDLH 281657
MTRGNA
METAR KGNA 281656Z AUTO 12006KT M01/M03 A3002 RMK AO1 SLP178
T10061033





000
SAUS43 KDLH 281557
MTRGNA
METAR KGNA 281556Z AUTO 14005KT M01/M04 A3004 RMK AO1 SLP185
T10061039





000
SAUS43 KDLH 281457
MTRGNA
METAR KGNA 281456Z AUTO 16005KT M01/M04 A3005 RMK AO1 SLP186
T10061039 58009





000
SAUS43 KDLH 281357
MTRGNA
METAR KGNA 281356Z AUTO 21006KT M01/M04 A3006 RMK AO1 SLP193
T10061039





000
SAUS43 KDLH 281357
MTRGNA
METAR KGNA 281356Z AUTO 21006KT M01/M04 A3006 RMK AO1 SLP193
T10061039





000
SAUS43 KDLH 281257
MTRGNA
METAR KGNA 281256Z AUTO 20008KT M01/M04 A3007 RMK AO1 SLP195
T10061039





000
SAUS43 KDLH 281157
MTRGNA
METAR KGNA 281156Z AUTO 20007KT M01/M04 A3007 RMK AO1 SLP196
T10061039 10000 21006 58013





000
SAUS43 KDLH 281057
MTRGNA
METAR KGNA 281056Z AUTO 21009KT M01/M03 A3009 RMK AO1 SLP202
T10061033





000
SAUS43 KDLH 280957
MTRGNA
METAR KGNA 280956Z AUTO 21010KT M01/M04 A3010 RMK AO1 SLP206
T10061039





000
SAUS43 KDLH 280957
MTRGNA
METAR KGNA 280956Z AUTO 21010KT M01/M04 A3010 RMK AO1 SLP206
T10061039





000
SAUS43 KDLH 280857
MTRGNA
METAR KGNA 280856Z AUTO 21012KT M01/M03 A3011 RMK AO1 SLP209
T10061033 58004





000
SAUS43 KDLH 280857
MTRGNA
METAR KGNA 280856Z AUTO 21012KT M01/M03 A3011 RMK AO1 SLP209
T10061033 58004





000
SAUS43 KDLH 280757
MTRGNA
METAR KGNA 280756Z AUTO 20010KT 00/M03 A3013 RMK AO1 SLP214
T00001033





000
SAUS43 KDLH 280657
MTRGNA
METAR KGNA 280656Z AUTO 22011KT 00/M03 A3012 RMK AO1 SLP213
T00001033





000
SAUS43 KDLH 280657
MTRGNA
METAR KGNA 280656Z AUTO 22011KT 00/M03 A3012 RMK AO1 SLP213
T00001033





000
SAUS43 KDLH 280557
MTRGNA
METAR KGNA 280556Z AUTO 22012KT 00/M03 A3013 RMK AO1 SLP214
T00001033 10000 21006 400001061 58008





000
SAUS43 KDLH 280557
MTRGNA
METAR KGNA 280556Z AUTO 22012KT 00/M03 A3013 RMK AO1 SLP214
T00001033 10000 21006 400001061 58008





000
SAUS43 KDLH 280457
MTRGNA
METAR KGNA 280456Z AUTO 23011KT 00/M04 A3014 RMK AO1 SLP217
T00001039





000
SAUS43 KDLH 280357
MTRGNA
METAR KGNA 280356Z AUTO 21010KT M01/M04 A3015 RMK AO1 SLP222
T10061039





000
SAUS43 KDLH 280257
MTRGNA
METAR KGNA 280256Z AUTO 22011KT 00/M04 A3015 RMK AO1 SLP223
T00001044 56006





000
SAUS43 KDLH 280257
MTRGNA
METAR KGNA 280256Z AUTO 22011KT 00/M04 A3015 RMK AO1 SLP223
T00001044 56006





000
SAUS43 KDLH 280157
MTRGNA
METAR KGNA 280156Z AUTO 23013KT M01/M04 A3015 RMK AO1 SLP225
T10061044





000
SAUS43 KDLH 280057
MTRGNA
METAR KGNA 280056Z AUTO 20009KT M01/M04 A3014 RMK AO1 SLP221
T10061044





000
SAUS43 KDLH 272357
MTRGNA
METAR KGNA 272356Z AUTO 21008KT M01/M04 A3017 RMK AO1 SLP230
T10061044 11006 21017 50006





000
SAUS43 KDLH 272257
MTRGNA
METAR KGNA 272256Z AUTO 22005KT M01/M05 A3017 RMK AO1 SLP230
T10111050





000
SAUS43 KDLH 272157
MTRGNA
METAR KGNA 272156Z AUTO 22005KT M01/M05 A3016 RMK AO1 SLP228
T10111050





000
SAUS43 KDLH 272057
MTRGNA
METAR KGNA 272056Z AUTO 00000KT M01/M06 A3015 RMK AO1 SLP224
T10111056 58007





000
SAUS43 KDLH 271957
MTRGNA
METAR KGNA 271956Z AUTO 23004KT M01/M06 A3017 RMK AO1 SLP230
T10111056





000
SAUS43 KDLH 271857
MTRGNA
METAR KGNA 271856Z AUTO 23004KT M01/M06 A3018 RMK AO1 SLP232
T10111056





000
SAUS43 KDLH 271757
MTRGNA
METAR KGNA 271756Z AUTO 00000KT M01/M06 A3017 RMK AO1 SLP231
T10111061 11011 21056 51006





000
SAUS43 KDLH 271657
MTRGNA
METAR KGNA 271656Z AUTO 00000KT M02/M07 A3017 RMK AO1 SLP230
T10171067





000
SAUS43 KDLH 271557
MTRGNA
METAR KGNA 271556Z AUTO 00000KT M02/M06 A3016 RMK AO1 SLP228
T10221061





000
SAUS43 KDLH 271457
MTRGNA
METAR KGNA 271456Z AUTO 33003KT M04/M07 A3015 RMK AO1 SLP226
T10391067 53014





000
SAUS43 KDLH 271357
MTRGNA
METAR KGNA 271356Z AUTO 33003KT M05/M07 A3013 RMK AO1 SLP219
T10501067





000
SAUS43 KDLH 271257
MTRGNA
METAR KGNA 271256Z AUTO 35004KT M04/M07 A3012 RMK AO1 SLP216
T10441072





000
SAUS43 KDLH 271157
MTRGNA
METAR KGNA 271156Z AUTO 33004KT M06/M08 A3011 RMK AO1 SLP212 70013
T10561078 11028 21061 51014





000
SAUS43 KDLH 271057
MTRGNA
METAR KGNA 271056Z AUTO 33005KT M04/M08 A3010 RMK AO1 SLP209
T10441078





000
SAUS43 KDLH 270957
MTRGNA
METAR KGNA 270956Z AUTO 34004KT M05/M07 A3009 RMK AO1 SLP205
T10501072





000
SAUS43 KDLH 270957
MTRGNA
METAR KGNA 270956Z AUTO 34004KT M05/M07 A3009 RMK AO1 SLP205
T10501072





000
SAUS43 KDLH 270857
MTRGNA
METAR KGNA 270856Z AUTO 35005KT M05/M08 A3007 RMK AO1 SLP198
T10501078 53025





000
SAUS43 KDLH 270757
MTRGNA
METAR KGNA 270756Z AUTO 34007KT M05/M08 A3004 RMK AO1 SLP188
T10501078





000
SAUS43 KDLH 270657
MTRGNA
METAR KGNA 270656Z AUTO 35003KT M03/M06 A3001 RMK AO1 SLP177
T10331061





000
SAUS43 KDLH 270557
MTRGNA
METAR KGNA 270556Z AUTO 36004KT M03/M06 A3000 RMK AO1 SLP172
T10331061 11028 21044 410281044 53024





000
SAUS43 KDLH 270457
MTRGNA
METAR KGNA 270456Z AUTO 36003KT M03/M06 A2997 RMK AO1 SLP161
T10281056





000
SAUS43 KDLH 270357
MTRGNA
METAR KGNA 270356Z AUTO VRB04KT M03/M06 A2994 RMK AO1 SLP154
T10331061





000
SAUS43 KDLH 270257
MTRGNA
METAR KGNA 270256Z AUTO 01004KT M04/M07 A2992 RMK AO1 SLP146
T10391067 51021





000
SAUS43 KDLH 270157
MTRGNA
METAR KGNA 270156Z AUTO 36004KT M04/M07 A2990 RMK AO1 SLP141
T10441072





000
SAUS43 KDLH 270057
MTRGNA
METAR KGNA 270056Z AUTO 02004KT M03/M06 A2988 RMK AO1 SLP132
T10331061





000
SAUS43 KDLH 262357
MTRGNA
METAR KGNA 262356Z AUTO 02003KT M03/M05 A2986 RMK AO1 SLP125 60003
T10331050 11028 21033 53031





000
SAUS43 KDLH 262257
MTRGNA
METAR KGNA 262256Z AUTO 04003KT M03/M05 A2982 RMK AO1 SLP111 P0001
T10331050





000
SAUS43 KDLH 262157
MTRGNA
METAR KGNA 262156Z AUTO 00000KT M03/M05 A2978 RMK AO1 SLP099 P0002
T10281050





000
SAUS43 KDLH 262057
MTRGNA
METAR KGNA 262056Z AUTO 00000KT M03/M06 A2976 RMK AO1 SLP094
T10331056 53016





000
SAUS43 KDLH 261957
MTRGNA
METAR KGNA 261956Z AUTO 20003KT M03/M06 A2972 RMK AO1 SLP076
T10281056





000
SAUS43 KDLH 261857
MTRGNA
METAR KGNA 261856Z AUTO 18003KT M03/M06 A2972 RMK AO1 SLP078
T10281061





000
SAUS43 KDLH 261757
MTRGNA
METAR KGNA 261756Z AUTO 20007KT M03/M06 A2972 RMK AO1 SLP076 60010
T10281056 11028 21039 50002





000
SAUS43 KDLH 261657
MTRGNA
METAR KGNA 261656Z AUTO 19011KT M03/M06 A2972 RMK AO1 SLP080 P0001
T10281056





000
SAUS43 KDLH 261557
MTRGNA
METAR KGNA 261556Z AUTO 20012KT M03/M04 A2971 RMK AO1 SLP078 P0003
T10281044





000
SAUS43 KDLH 261457
MTRGNA
METAR KGNA 261456Z AUTO 20011KT M03/M05 A2971 RMK AO1 SLP076 P0001
60006 T10331050 56010





000
SAUS43 KDLH 261357
MTRGNA
METAR KGNA 261356Z AUTO 19014KT M03/M05 A2972 RMK AO1 SLP079 P0003
T10331050





000
SAUS43 KDLH 261257
MTRGNA
METAR KGNA 261256Z AUTO 20017KT M04/M06 A2973 RMK AO1 SLP083 P0002
T10391056





000
SAUS43 KDLH 261157
MTRGNA
METAR KGNA 261156Z AUTO 19015KT M04/M06 A2974 RMK AO1 SLP088 P0001
60004 70005 T10391056 11033 21044 56033





000
SAUS43 KDLH 261057
MTRGNA
METAR KGNA 261056Z AUTO 20017KT M03/M06 A2977 RMK AO1 SLP097 P0002
T10331056





000
SAUS43 KDLH 260957
MTRGNA
METAR KGNA 260956Z AUTO 22016KT M04/M06 A2980 RMK AO1 SLP109 P0001
T10391061





000
SAUS43 KDLH 260857
MTRGNA
METAR KGNA 260856Z AUTO 21015KT M04/M07 A2984 RMK AO1 SLP121
T10441067 56030





000
SAUS43 KDLH 260757
MTRGNA
METAR KGNA 260756Z AUTO 21011KT M04/M08 A2986 RMK AO1 SLP129
T10441083





000
SAUS43 KDLH 260657
MTRGNA
METAR KGNA 260656Z AUTO 21010KT M04/M09 A2989 RMK AO1 SLP138
T10441094





000
SAUS43 KDLH 260557
MTRGNA
METAR KGNA 260556Z AUTO 21011KT M04/M09 A2993 RMK AO1 SLP153
T10441089 11044 21089 410441156 56027





000
SAUS43 KDLH 260457
MTRGNA
METAR KGNA 260456Z AUTO 19010KT M05/M09 A2995 RMK AO1 SLP161
T10501089





000
SAUS43 KDLH 260357
MTRGNA
METAR KGNA 260356Z AUTO 35004KT M07/M10 A2998 RMK AO1 SLP172
T10721100





000
SAUS43 KDLH 260257
MTRGNA
METAR KGNA 260256Z AUTO 02003KT M08/M11 A3001 RMK AO1 SLP183
T10781111 58031





000
SAUS43 KDLH 260157
MTRGNA
METAR KGNA 260156Z AUTO 00000KT M08/M12 A3005 RMK AO1 SLP197
T10831117





000
SAUS43 KDLH 260057
MTRGNA
METAR KGNA 260056Z AUTO 00000KT M08/M12 A3008 RMK AO1 SLP207
T10831122





000
SAUS43 KDLH 252357
MTRGNA
METAR KGNA 252356Z AUTO 00000KT M08/M12 A3011 RMK AO1 SLP217 P0001
60001 T10831122 11083 21106 53004





000
SAUS43 KDLH 252257
MTRGNA
METAR KGNA 252256Z AUTO 00000KT M09/M13 A3008 RMK AO1 SLP207
T10891133





000
SAUS43 KDLH 252157
MTRGNA
METAR KGNA 252156Z AUTO 00000KT M09/M13 A3008 RMK AO1 SLP208
T10891128





000
SAUS43 KDLH 252057
MTRGNA
METAR KGNA 252056Z AUTO 00000KT M08/M14 A3009 RMK AO1 SLP212
T10831139 58020





000
SAUS43 KDLH 251957
MTRGNA
METAR KGNA 251956Z AUTO 10004KT M09/M16 A3012 RMK AO1 SLP221
T10891156





000
SAUS43 KDLH 251857
MTRGNA
METAR KGNA 251856Z AUTO 07004KT M10/M16 A3013 RMK AO1 SLP226
T11001161





    US Dept of Commerce
    National Oceanic and Atmospheric Administration
    National Weather Service
    1325 East West Highway
    Silver Spring, MD 20910
    Page Author: NWS Internet Services Team
Disclaimer
Information Quality
Credits
Glossary
Privacy Policy
Freedom of Information Act (FOIA)
About Us
Career Opportunities